MST,Max TemperatureF,Mean TemperatureF,Min TemperatureF,Max Dew PointF,MeanDew PointF,Min DewpointF,Max Humidity, Mean Humidity, Min Humidity, Max Sea Level PressureIn, Mean Sea Level PressureIn, Min Sea Level PressureIn, Max VisibilityMiles, Mean VisibilityMiles, Min VisibilityMiles, Max Wind SpeedMPH, Mean Wind SpeedMPH, Max Gust SpeedMPH,PrecipitationIn, CloudCover, Events, WindDirDegrees
2012-11-1,66,56,46,34,30,27,58,41,23,30.06,30.03,29.99,15,12,10,16,8,17,0.00,3,,133
2012-11-2,60,48,37,37,32,27,76,58,36,30.17,30.12,30.05,15,12,10,13,5,,0.00,1,,132
2012-11-3,57,45,33,39,31,28,87,67,38,30.29,30.22,30.17,15,12,10,6,2,,0.00,1,,131
2012-11-4,60,46,33,36,31,27,81,65,31,30.44,30.36,30.30,15,12,10,7,2,,0.00,1,,139
2012-11-5,59,46,33,50,33,28,87,72,41,30.48,30.42,30.37,15,12,10,8,2,,0.00,1,,125
2012-11-6,59,44,30,39,34,27,93,75,45,30.41,30.33,30.22,15,12,10,6,1,,0.00,0,,148
2012-11-7,69,51,33,36,30,25,81,54,23,30.23,30.07,29.94,15,12,10,10,4,,0.00,0,,140
2012-11-8,69,56,42,39,30,21,57,45,21,29.93,29.78,29.64,15,12,10,21,8,34,0.00,3,,161
2012-11-9,68,50,32,41,34,30,100,70,26,29.72,29.64,29.57,10,6,0,17,9,25,0.07,8,Rain-Snow-Thunderstorm,246
2012-11-10,32,28,24,30,25,16,93,82,55,30.00,29.80,29.68,15,9,0,13,6,,0.10,7,Tornado,284
2012-11-11,30,24,17,25,19,12,93,79,47,30.48,30.21,30.01,15,11,6,13,7,,0.00,4,Snow,102
2012-11-12,35,24,12,23,15,7,100,78,48,30.51,30.44,30.09,15,12,10,10,5,,0.00,2,,134
2012-11-13,35,26,17,25,21,14,100,87,65,30.41,30.36,30.21,15,11,6,6,3,,0.00,1,,117
2012-11-14,39,32,24,34,27,21,100,85,61,30.29,30.26,30.21,15,11,4,9,1,,0.00,2,,115
2012-11-15,42,32,23,39,28,21,100,90,66,30.35,30.27,30.19,15,7,2,6,1,,0.00,0,,70
2012-11-16,44,38,32,39,34,28,100,89,66,30.17,30.13,30.10,15,9,2,17,3,,0.01,4,,245
2012-11-17,51,44,37,45,40,36,100,88,76,30.13,30.08,30.01,15,12,10,14,4,,0.11,7,,125
2012-11-18,53,46,39,43,39,34,93,81,58,30.16,30.06,30.01,15,12,10,13,3,,0.00,6,,131
2012-11-19,57,46,35,39,35,32,93,78,41,30.28,30.23,30.17,15,12,10,9,3,,0.00,2,,132
2012-11-20,60,48,35,36,33,28,93,65,31,30.29,30.20,30.09,15,12,10,18,7,20,0.00,2,,140
2012-11-21,62,50,39,36,31,25,81,54,25,30.12,30.06,30.00,15,12,10,22,10,,0.00,3,,152
2012-11-22,46,38,30,36,27,21,86,62,37,30.51,30.34,30.13,15,12,10,24,15,26,0.00,1,,306
2012-11-23,44,35,26,28,25,21,93,76,46,30.54,30.46,30.29,15,12,10,7,3,,0.00,1,,127
2012-11-24,48,37,26,34,27,21,100,79,46,30.35,30.24,30.08,15,12,10,6,1,,0.00,0,,102
2012-11-25,48,37,26,32,27,21,93,76,46,30.14,30.05,30.01,15,11,6,14,4,,0.00,1,,44
2012-11-26,42,34,26,30,26,21,93,82,57,30.31,30.23,30.14,15,11,5,6,1,,0.00,0,,126
2012-11-27,44,34,24,30,24,18,93,75,53,30.34,30.27,30.22,15,12,10,10,3,,0.00,0,,116
2012-11-28,59,44,28,37,26,21,86,59,31,30.25,30.17,30.03,15,12,10,13,4,16,0.00,2,,118
2012-11-29,57,46,35,36,30,25,75,53,38,30.16,30.10,30.07,15,12,10,12,3,,0.00,3,,120
2012-11-30,55,50,46,45,34,30,87,58,44,30.09,30.02,29.94,15,11,10,15,8,17,0.00,7,Rain,124